Terminal Aerodrome Forecast
Issued by NWS Flagstaff, AZ

Home | Current Version | Previous Version | Text Only | Print | Product List | Glossary On
Versions: 1 2 3 4 5 6 7 8 9 10 11 12 13 14
000
FTUS45 KFGZ 310949 AAA
TAFINW
TAF AMD
KINW 310949Z 3110/0106 23006KT P6SM FEW120
      TEMPO 3110/3114 5SM FU
     FM312100 32010KT P6SM SCT120
     FM010300 24008KT P6SM SCT120=

USA.gov is the U.S. government's official web portal to all federal, state and local government web resources and services.